sensor_id;sensor_type;location;lat;lon;timestamp;P1;durP1;ratioP1;P2;durP2;ratioP2
34471;SDS011;20710;49.976;19.836;2023-06-14T00:02:11;19.40;;;10.80;;
34471;SDS011;20710;49.976;19.836;2023-06-14T00:08:13;15.30;;;8.70;;
34471;SDS011;20710;49.976;19.836;2023-06-14T00:14:35;14.00;;;8.90;;
34471;SDS011;20710;49.976;19.836;2023-06-14T00:20:39;14.70;;;8.70;;
34471;SDS011;20710;49.976;19.836;2023-06-14T00:26:40;17.40;;;9.00;;
34471;SDS011;20710;49.976;19.836;2023-06-14T00:32:43;13.20;;;9.20;;
34471;SDS011;20710;49.976;19.836;2023-06-14T00:38:45;16.30;;;9.80;;
34471;SDS011;20710;49.976;19.836;2023-06-14T00:44:47;16.20;;;9.70;;
34471;SDS011;20710;49.976;19.836;2023-06-14T00:50:49;13.70;;;9.30;;
34471;SDS011;20710;49.976;19.836;2023-06-14T00:57:34;15.10;;;9.40;;
34471;SDS011;20710;49.976;19.836;2023-06-14T01:03:39;13.80;;;9.00;;
34471;SDS011;20710;49.976;19.836;2023-06-14T01:17:07;12.70;;;8.30;;
34471;SDS011;20710;49.976;19.836;2023-06-14T01:23:33;11.80;;;8.20;;
34471;SDS011;20710;49.976;19.836;2023-06-14T01:29:35;14.10;;;8.60;;
34471;SDS011;20710;49.976;19.836;2023-06-14T01:37:00;14.20;;;8.90;;
34471;SDS011;20710;49.976;19.836;2023-06-14T01:43:02;16.30;;;9.50;;
34471;SDS011;20710;49.976;19.836;2023-06-14T01:49:04;15.30;;;9.10;;
34471;SDS011;20710;49.976;19.836;2023-06-14T01:55:08;14.10;;;8.80;;
34471;SDS011;20710;49.976;19.836;2023-06-14T02:01:10;15.90;;;9.70;;
34471;SDS011;20710;49.976;19.836;2023-06-14T02:07:32;18.00;;;10.80;;
34471;SDS011;20710;49.976;19.836;2023-06-14T02:13:57;18.10;;;11.10;;
34471;SDS011;20710;49.976;19.836;2023-06-14T02:20:13;19.60;;;10.50;;
34471;SDS011;20710;49.976;19.836;2023-06-14T02:26:15;19.70;;;11.50;;
34471;SDS011;20710;49.976;19.836;2023-06-14T02:32:17;19.60;;;11.60;;
34471;SDS011;20710;49.976;19.836;2023-06-14T02:38:20;23.50;;;13.40;;
34471;SDS011;20710;49.976;19.836;2023-06-14T02:44:30;18.90;;;12.10;;
34471;SDS011;20710;49.976;19.836;2023-06-14T02:50:31;20.30;;;12.10;;
34471;SDS011;20710;49.976;19.836;2023-06-14T02:56:33;16.00;;;11.00;;
34471;SDS011;20710;49.976;19.836;2023-06-14T03:02:35;18.50;;;10.30;;
34471;SDS011;20710;49.976;19.836;2023-06-14T03:08:38;16.50;;;10.50;;
34471;SDS011;20710;49.976;19.836;2023-06-14T03:15:21;27.10;;;13.00;;
34471;SDS011;20710;49.976;19.836;2023-06-14T03:21:26;31.90;;;14.10;;
34471;SDS011;20710;49.976;19.836;2023-06-14T03:27:29;28.70;;;13.50;;
34471;SDS011;20710;49.976;19.836;2023-06-14T03:33:35;29.40;;;14.60;;
34471;SDS011;20710;49.976;19.836;2023-06-14T03:39:58;28.70;;;13.60;;
34471;SDS011;20710;49.976;19.836;2023-06-14T03:46:02;31.10;;;13.40;;
34471;SDS011;20710;49.976;19.836;2023-06-14T03:52:05;34.70;;;13.80;;
34471;SDS011;20710;49.976;19.836;2023-06-14T03:58:07;37.70;;;14.50;;
34471;SDS011;20710;49.976;19.836;2023-06-14T04:04:11;34.90;;;15.50;;
34471;SDS011;20710;49.976;19.836;2023-06-14T04:10:13;39.30;;;16.20;;
34471;SDS011;20710;49.976;19.836;2023-06-14T04:16:22;37.50;;;16.00;;
34471;SDS011;20710;49.976;19.836;2023-06-14T04:22:43;45.50;;;16.80;;
34471;SDS011;20710;49.976;19.836;2023-06-14T04:29:24;42.40;;;17.30;;
34471;SDS011;20710;49.976;19.836;2023-06-14T04:35:35;40.00;;;16.40;;
34471;SDS011;20710;49.976;19.836;2023-06-14T04:41:39;42.80;;;17.30;;
34471;SDS011;20710;49.976;19.836;2023-06-14T04:47:43;35.70;;;16.80;;
34471;SDS011;20710;49.976;19.836;2023-06-14T04:53:45;32.80;;;16.10;;
34471;SDS011;20710;49.976;19.836;2023-06-14T04:59:48;39.40;;;17.10;;
34471;SDS011;20710;49.976;19.836;2023-06-14T05:05:53;38.40;;;17.00;;
34471;SDS011;20710;49.976;19.836;2023-06-14T05:11:55;43.60;;;19.30;;
34471;SDS011;20710;49.976;19.836;2023-06-14T05:17:57;37.00;;;16.80;;
34471;SDS011;20710;49.976;19.836;2023-06-14T05:24:20;37.10;;;16.70;;
34471;SDS011;20710;49.976;19.836;2023-06-14T05:30:22;48.90;;;20.90;;
34471;SDS011;20710;49.976;19.836;2023-06-14T05:36:24;38.50;;;19.80;;
34471;SDS011;20710;49.976;19.836;2023-06-14T05:43:26;39.30;;;19.80;;
34471;SDS011;20710;49.976;19.836;2023-06-14T05:49:27;36.40;;;19.60;;
34471;SDS011;20710;49.976;19.836;2023-06-14T05:55:29;41.60;;;20.80;;
34471;SDS011;20710;49.976;19.836;2023-06-14T06:01:31;44.40;;;20.10;;
34471;SDS011;20710;49.976;19.836;2023-06-14T06:07:36;49.10;;;21.00;;
34471;SDS011;20710;49.976;19.836;2023-06-14T06:13:58;39.00;;;20.50;;
34471;SDS011;20710;49.976;19.836;2023-06-14T06:19:59;31.70;;;17.20;;
34471;SDS011;20710;49.976;19.836;2023-06-14T06:26:10;33.60;;;17.90;;
34471;SDS011;20710;49.976;19.836;2023-06-14T06:32:12;35.10;;;17.80;;
34471;SDS011;20710;49.976;19.836;2023-06-14T06:38:34;30.30;;;16.60;;
34471;SDS011;20710;49.976;19.836;2023-06-14T06:44:36;29.40;;;16.50;;
34471;SDS011;20710;49.976;19.836;2023-06-14T06:51:01;27.10;;;16.30;;
34471;SDS011;20710;49.976;19.836;2023-06-14T06:57:22;25.30;;;15.40;;
34471;SDS011;20710;49.976;19.836;2023-06-14T07:03:24;23.10;;;14.60;;
34471;SDS011;20710;49.976;19.836;2023-06-14T07:09:29;25.90;;;14.80;;
34471;SDS011;20710;49.976;19.836;2023-06-14T07:15:32;23.70;;;14.20;;
34471;SDS011;20710;49.976;19.836;2023-06-14T07:22:15;26.20;;;15.40;;
34471;SDS011;20710;49.976;19.836;2023-06-14T07:28:37;26.50;;;15.70;;
34471;SDS011;20710;49.976;19.836;2023-06-14T07:34:39;27.70;;;17.00;;
34471;SDS011;20710;49.976;19.836;2023-06-14T07:40:41;22.90;;;15.20;;
34471;SDS011;20710;49.976;19.836;2023-06-14T07:46:42;30.60;;;16.60;;
34471;SDS011;20710;49.976;19.836;2023-06-14T07:52:45;23.10;;;13.10;;
34471;SDS011;20710;49.976;19.836;2023-06-14T07:58:47;18.70;;;12.10;;
34471;SDS011;20710;49.976;19.836;2023-06-14T08:04:49;20.60;;;13.50;;
34471;SDS011;20710;49.976;19.836;2023-06-14T08:10:50;20.80;;;13.40;;
34471;SDS011;20710;49.976;19.836;2023-06-14T08:17:02;16.20;;;11.10;;
34471;SDS011;20710;49.976;19.836;2023-06-14T08:23:03;16.60;;;11.10;;
34471;SDS011;20710;49.976;19.836;2023-06-14T08:29:05;16.10;;;10.70;;
34471;SDS011;20710;49.976;19.836;2023-06-14T08:35:08;18.80;;;11.40;;
34471;SDS011;20710;49.976;19.836;2023-06-14T08:41:10;18.70;;;11.60;;
34471;SDS011;20710;49.976;19.836;2023-06-14T08:47:21;17.20;;;10.30;;
34471;SDS011;20710;49.976;19.836;2023-06-14T08:53:27;15.00;;;10.30;;
34471;SDS011;20710;49.976;19.836;2023-06-14T08:59:30;19.60;;;12.10;;
34471;SDS011;20710;49.976;19.836;2023-06-14T09:05:51;15.40;;;10.40;;
34471;SDS011;20710;49.976;19.836;2023-06-14T09:11:54;14.60;;;9.60;;
34471;SDS011;20710;49.976;19.836;2023-06-14T09:17:56;16.60;;;9.80;;
34471;SDS011;20710;49.976;19.836;2023-06-14T09:24:13;13.70;;;8.70;;
34471;SDS011;20710;49.976;19.836;2023-06-14T09:30:15;14.70;;;9.00;;
34471;SDS011;20710;49.976;19.836;2023-06-14T09:36:18;9.10;;;6.60;;
34471;SDS011;20710;49.976;19.836;2023-06-14T09:42:39;10.80;;;7.50;;
34471;SDS011;20710;49.976;19.836;2023-06-14T09:48:42;6.90;;;5.10;;
34471;SDS011;20710;49.976;19.836;2023-06-14T09:55:07;5.80;;;4.70;;
34471;SDS011;20710;49.976;19.836;2023-06-14T10:01:28;9.80;;;6.50;;
34471;SDS011;20710;49.976;19.836;2023-06-14T10:07:35;7.90;;;5.40;;
34471;SDS011;20710;49.976;19.836;2023-06-14T10:13:52;6.60;;;5.00;;
34471;SDS011;20710;49.976;19.836;2023-06-14T10:20:01;4.70;;;3.70;;
34471;SDS011;20710;49.976;19.836;2023-06-14T10:26:21;5.30;;;3.70;;
34471;SDS011;20710;49.976;19.836;2023-06-14T10:32:33;6.40;;;5.30;;
34471;SDS011;20710;49.976;19.836;2023-06-14T10:39:10;6.70;;;5.20;;
34471;SDS011;20710;49.976;19.836;2023-06-14T10:46:18;7.10;;;4.70;;
34471;SDS011;20710;49.976;19.836;2023-06-14T10:52:26;7.00;;;5.60;;
34471;SDS011;20710;49.976;19.836;2023-06-14T10:59:28;6.70;;;4.90;;
34471;SDS011;20710;49.976;19.836;2023-06-14T11:05:30;6.70;;;5.70;;
34471;SDS011;20710;49.976;19.836;2023-06-14T11:11:33;7.50;;;5.30;;
34471;SDS011;20710;49.976;19.836;2023-06-14T11:17:35;6.90;;;5.10;;
34471;SDS011;20710;49.976;19.836;2023-06-14T11:23:39;7.00;;;5.00;;
34471;SDS011;20710;49.976;19.836;2023-06-14T11:29:47;5.80;;;4.30;;
34471;SDS011;20710;49.976;19.836;2023-06-14T11:35:52;5.40;;;3.90;;
34471;SDS011;20710;49.976;19.836;2023-06-14T11:41:54;6.50;;;3.60;;
34471;SDS011;20710;49.976;19.836;2023-06-14T11:47:58;3.40;;;3.10;;
34471;SDS011;20710;49.976;19.836;2023-06-14T11:54:19;6.90;;;3.60;;
34471;SDS011;20710;49.976;19.836;2023-06-14T12:00:24;9.00;;;3.50;;
34471;SDS011;20710;49.976;19.836;2023-06-14T12:07:12;4.30;;;3.90;;
34471;SDS011;20710;49.976;19.836;2023-06-14T12:13:37;5.60;;;4.90;;
34471;SDS011;20710;49.976;19.836;2023-06-14T12:19:42;5.40;;;4.60;;
34471;SDS011;20710;49.976;19.836;2023-06-14T12:25:44;5.80;;;4.60;;
34471;SDS011;20710;49.976;19.836;2023-06-14T12:32:22;5.90;;;4.10;;
34471;SDS011;20710;49.976;19.836;2023-06-14T12:38:26;4.70;;;4.30;;
34471;SDS011;20710;49.976;19.836;2023-06-14T12:44:42;8.10;;;4.90;;
34471;SDS011;20710;49.976;19.836;2023-06-14T12:50:44;6.50;;;4.30;;
34471;SDS011;20710;49.976;19.836;2023-06-14T12:57:06;7.10;;;4.20;;
34471;SDS011;20710;49.976;19.836;2023-06-14T13:03:11;6.00;;;4.30;;
34471;SDS011;20710;49.976;19.836;2023-06-14T13:09:13;6.90;;;4.10;;
34471;SDS011;20710;49.976;19.836;2023-06-14T13:15:17;4.60;;;3.10;;
34471;SDS011;20710;49.976;19.836;2023-06-14T13:21:18;4.30;;;3.40;;
34471;SDS011;20710;49.976;19.836;2023-06-14T13:27:20;5.20;;;3.80;;
34471;SDS011;20710;49.976;19.836;2023-06-14T13:33:22;6.00;;;3.90;;
34471;SDS011;20710;49.976;19.836;2023-06-14T13:39:58;6.80;;;4.30;;
34471;SDS011;20710;49.976;19.836;2023-06-14T13:46:30;5.60;;;4.20;;
34471;SDS011;20710;49.976;19.836;2023-06-14T13:52:32;6.00;;;3.90;;
34471;SDS011;20710;49.976;19.836;2023-06-14T13:58:51;8.00;;;3.40;;
34471;SDS011;20710;49.976;19.836;2023-06-14T14:05:33;4.50;;;3.30;;
34471;SDS011;20710;49.976;19.836;2023-06-14T14:11:35;4.40;;;3.30;;
34471;SDS011;20710;49.976;19.836;2023-06-14T14:17:57;5.70;;;3.40;;
34471;SDS011;20710;49.976;19.836;2023-06-14T14:23:59;3.50;;;2.90;;
34471;SDS011;20710;49.976;19.836;2023-06-14T14:30:00;5.10;;;2.90;;
34471;SDS011;20710;49.976;19.836;2023-06-14T14:36:25;3.60;;;3.10;;
34471;SDS011;20710;49.976;19.836;2023-06-14T14:42:26;3.80;;;3.00;;
34471;SDS011;20710;49.976;19.836;2023-06-14T14:48:35;5.50;;;3.60;;
34471;SDS011;20710;49.976;19.836;2023-06-14T14:54:37;6.60;;;3.00;;
34471;SDS011;20710;49.976;19.836;2023-06-14T15:00:39;5.60;;;3.00;;
34471;SDS011;20710;49.976;19.836;2023-06-14T15:06:41;5.00;;;3.30;;
34471;SDS011;20710;49.976;19.836;2023-06-14T15:12:42;6.80;;;3.20;;
34471;SDS011;20710;49.976;19.836;2023-06-14T15:18:44;5.00;;;3.50;;
34471;SDS011;20710;49.976;19.836;2023-06-14T15:24:46;5.50;;;3.30;;
34471;SDS011;20710;49.976;19.836;2023-06-14T15:31:08;3.80;;;2.90;;
34471;SDS011;20710;49.976;19.836;2023-06-14T15:37:10;5.10;;;3.20;;
34471;SDS011;20710;49.976;19.836;2023-06-14T15:43:12;5.30;;;3.00;;
34471;SDS011;20710;49.976;19.836;2023-06-14T15:49:34;4.50;;;3.20;;
34471;SDS011;20710;49.976;19.836;2023-06-14T15:56:02;6.00;;;3.10;;
34471;SDS011;20710;49.976;19.836;2023-06-14T16:02:04;5.80;;;3.10;;
34471;SDS011;20710;49.976;19.836;2023-06-14T16:08:06;5.50;;;3.30;;
34471;SDS011;20710;49.976;19.836;2023-06-14T16:14:09;3.70;;;2.80;;
34471;SDS011;20710;49.976;19.836;2023-06-14T16:28:04;7.30;;;2.30;;
34471;SDS011;20710;49.976;19.836;2023-06-14T16:34:06;4.50;;;2.40;;
34471;SDS011;20710;49.976;19.836;2023-06-14T16:40:28;4.20;;;2.50;;
34471;SDS011;20710;49.976;19.836;2023-06-14T16:46:31;2.70;;;2.40;;
34471;SDS011;20710;49.976;19.836;2023-06-14T16:52:39;4.20;;;3.20;;
34471;SDS011;20710;49.976;19.836;2023-06-14T16:59:23;5.10;;;3.50;;
34471;SDS011;20710;49.976;19.836;2023-06-14T17:05:25;6.70;;;3.30;;
34471;SDS011;20710;49.976;19.836;2023-06-14T17:11:59;4.40;;;3.20;;
34471;SDS011;20710;49.976;19.836;2023-06-14T17:18:21;5.10;;;3.20;;
34471;SDS011;20710;49.976;19.836;2023-06-14T17:24:23;5.00;;;3.30;;
34471;SDS011;20710;49.976;19.836;2023-06-14T17:30:25;7.30;;;3.60;;
34471;SDS011;20710;49.976;19.836;2023-06-14T17:36:26;5.90;;;3.40;;
34471;SDS011;20710;49.976;19.836;2023-06-14T17:42:28;6.20;;;3.00;;
34471;SDS011;20710;49.976;19.836;2023-06-14T17:48:30;4.20;;;3.10;;
34471;SDS011;20710;49.976;19.836;2023-06-14T17:54:52;4.00;;;2.60;;
34471;SDS011;20710;49.976;19.836;2023-06-14T18:00:53;3.60;;;2.80;;
34471;SDS011;20710;49.976;19.836;2023-06-14T18:06:55;4.10;;;3.30;;
34471;SDS011;20710;49.976;19.836;2023-06-14T18:28:22;4.40;;;3.20;;
34471;SDS011;20710;49.976;19.836;2023-06-14T18:34:29;4.40;;;3.70;;
34471;SDS011;20710;49.976;19.836;2023-06-14T18:40:33;6.30;;;3.70;;
34471;SDS011;20710;49.976;19.836;2023-06-14T18:46:35;6.30;;;4.30;;
34471;SDS011;20710;49.976;19.836;2023-06-14T18:52:39;5.00;;;3.90;;
34471;SDS011;20710;49.976;19.836;2023-06-14T18:59:02;6.10;;;3.60;;
34471;SDS011;20710;49.976;19.836;2023-06-14T19:06:05;6.80;;;4.00;;
34471;SDS011;20710;49.976;19.836;2023-06-14T19:12:07;5.40;;;4.20;;
34471;SDS011;20710;49.976;19.836;2023-06-14T19:18:26;5.40;;;4.00;;
34471;SDS011;20710;49.976;19.836;2023-06-14T19:24:29;7.90;;;4.60;;
34471;SDS011;20710;49.976;19.836;2023-06-14T19:30:45;6.90;;;4.50;;
34471;SDS011;20710;49.976;19.836;2023-06-14T19:36:47;6.20;;;4.30;;
34471;SDS011;20710;49.976;19.836;2023-06-14T19:42:48;7.20;;;5.10;;
34471;SDS011;20710;49.976;19.836;2023-06-14T19:48:50;10.40;;;6.60;;
34471;SDS011;20710;49.976;19.836;2023-06-14T19:54:52;9.40;;;5.60;;
34471;SDS011;20710;49.976;19.836;2023-06-14T20:00:54;11.70;;;6.50;;
34471;SDS011;20710;49.976;19.836;2023-06-14T20:06:55;10.40;;;6.80;;
34471;SDS011;20710;49.976;19.836;2023-06-14T20:13:58;12.30;;;7.30;;
34471;SDS011;20710;49.976;19.836;2023-06-14T20:20:01;10.20;;;7.10;;
34471;SDS011;20710;49.976;19.836;2023-06-14T20:26:03;9.40;;;5.30;;
34471;SDS011;20710;49.976;19.836;2023-06-14T20:32:07;7.60;;;5.50;;
34471;SDS011;20710;49.976;19.836;2023-06-14T20:38:10;9.40;;;6.30;;
34471;SDS011;20710;49.976;19.836;2023-06-14T20:44:11;10.50;;;6.70;;
34471;SDS011;20710;49.976;19.836;2023-06-14T20:50:13;20.20;;;11.20;;
34471;SDS011;20710;49.976;19.836;2023-06-14T20:56:18;29.60;;;15.00;;
34471;SDS011;20710;49.976;19.836;2023-06-14T21:02:59;33.30;;;15.80;;
34471;SDS011;20710;49.976;19.836;2023-06-14T21:09:27;26.10;;;13.50;;
34471;SDS011;20710;49.976;19.836;2023-06-14T21:15:29;22.30;;;12.10;;
34471;SDS011;20710;49.976;19.836;2023-06-14T21:21:30;24.30;;;13.10;;
34471;SDS011;20710;49.976;19.836;2023-06-14T21:27:32;22.60;;;10.50;;
34471;SDS011;20710;49.976;19.836;2023-06-14T21:33:34;15.80;;;9.60;;
34471;SDS011;20710;49.976;19.836;2023-06-14T21:39:56;18.10;;;10.60;;
34471;SDS011;20710;49.976;19.836;2023-06-14T21:45:57;17.00;;;10.20;;
34471;SDS011;20710;49.976;19.836;2023-06-14T21:52:00;20.30;;;10.30;;
34471;SDS011;20710;49.976;19.836;2023-06-14T21:58:02;14.30;;;9.10;;
34471;SDS011;20710;49.976;19.836;2023-06-14T22:04:03;14.50;;;8.30;;
34471;SDS011;20710;49.976;19.836;2023-06-14T22:10:05;13.30;;;8.80;;
34471;SDS011;20710;49.976;19.836;2023-06-14T22:16:08;11.10;;;8.30;;
34471;SDS011;20710;49.976;19.836;2023-06-14T22:22:29;13.20;;;8.50;;
34471;SDS011;20710;49.976;19.836;2023-06-14T22:28:31;15.60;;;8.60;;
34471;SDS011;20710;49.976;19.836;2023-06-14T22:35:26;12.50;;;8.20;;
34471;SDS011;20710;49.976;19.836;2023-06-14T22:41:27;13.00;;;8.00;;
34471;SDS011;20710;49.976;19.836;2023-06-14T22:48:31;10.60;;;7.60;;
34471;SDS011;20710;49.976;19.836;2023-06-14T22:54:45;21.90;;;7.80;;
34471;SDS011;20710;49.976;19.836;2023-06-14T23:00:46;11.90;;;9.40;;
34471;SDS011;20710;49.976;19.836;2023-06-14T23:06:49;13.80;;;7.50;;
34471;SDS011;20710;49.976;19.836;2023-06-14T23:13:11;9.90;;;7.30;;
34471;SDS011;20710;49.976;19.836;2023-06-14T23:19:32;13.10;;;8.60;;
34471;SDS011;20710;49.976;19.836;2023-06-14T23:25:34;15.90;;;8.80;;
34471;SDS011;20710;49.976;19.836;2023-06-14T23:31:36;14.10;;;8.10;;
34471;SDS011;20710;49.976;19.836;2023-06-14T23:37:40;12.10;;;9.20;;
34471;SDS011;20710;49.976;19.836;2023-06-14T23:44:01;11.80;;;8.20;;
34471;SDS011;20710;49.976;19.836;2023-06-14T23:50:03;11.10;;;7.90;;
34471;SDS011;20710;49.976;19.836;2023-06-14T23:56:05;11.00;;;8.30;;
